sensor_id;sensor_type;location;lat;lon;timestamp;temperature;humidity
51902;DHT22;37929;53.218;6.548;2022-07-10T00:01:51;15.20;99.90
51902;DHT22;37929;53.218;6.548;2022-07-10T00:04:18;15.20;99.90
51902;DHT22;37929;53.218;6.548;2022-07-10T00:06:46;15.10;99.90
51902;DHT22;37929;53.218;6.548;2022-07-10T00:09:15;15.10;99.90
51902;DHT22;37929;53.218;6.548;2022-07-10T00:11:41;15.10;99.90
51902;DHT22;37929;53.218;6.548;2022-07-10T00:14:07;15.10;99.90
51902;DHT22;37929;53.218;6.548;2022-07-10T00:16:33;15.00;99.90
51902;DHT22;37929;53.218;6.548;2022-07-10T00:18:59;15.00;99.90
51902;DHT22;37929;53.218;6.548;2022-07-10T00:21:24;15.00;99.90
51902;DHT22;37929;53.218;6.548;2022-07-10T00:23:50;15.00;99.90
51902;DHT22;37929;53.218;6.548;2022-07-10T00:26:16;14.90;99.90
51902;DHT22;37929;53.218;6.548;2022-07-10T00:28:42;15.00;99.90
51902;DHT22;37929;53.218;6.548;2022-07-10T00:31:07;14.90;99.90
51902;DHT22;37929;53.218;6.548;2022-07-10T00:33:36;14.90;99.90
51902;DHT22;37929;53.218;6.548;2022-07-10T00:36:04;15.00;99.90
51902;DHT22;37929;53.218;6.548;2022-07-10T00:38:30;14.90;99.90
51902;DHT22;37929;53.218;6.548;2022-07-10T00:40:56;14.90;99.90
51902;DHT22;37929;53.218;6.548;2022-07-10T00:43:22;14.90;99.90
51902;DHT22;37929;53.218;6.548;2022-07-10T00:45:49;14.90;99.90
51902;DHT22;37929;53.218;6.548;2022-07-10T00:48:14;15.00;99.90
51902;DHT22;37929;53.218;6.548;2022-07-10T00:50:42;14.90;99.90
51902;DHT22;37929;53.218;6.548;2022-07-10T00:53:10;14.90;99.90
51902;DHT22;37929;53.218;6.548;2022-07-10T00:55:37;14.90;99.90
51902;DHT22;37929;53.218;6.548;2022-07-10T00:58:06;14.90;99.90
51902;DHT22;37929;53.218;6.548;2022-07-10T01:00:34;14.90;99.90
51902;DHT22;37929;53.218;6.548;2022-07-10T01:03:03;15.10;99.90
51902;DHT22;37929;53.218;6.548;2022-07-10T01:05:29;14.90;99.90
51902;DHT22;37929;53.218;6.548;2022-07-10T01:07:55;14.90;99.90
51902;DHT22;37929;53.218;6.548;2022-07-10T01:10:20;14.90;99.90
51902;DHT22;37929;53.218;6.548;2022-07-10T01:12:46;14.90;99.90
51902;DHT22;37929;53.218;6.548;2022-07-10T01:15:12;14.90;99.90
51902;DHT22;37929;53.218;6.548;2022-07-10T01:17:38;14.80;99.90
51902;DHT22;37929;53.218;6.548;2022-07-10T01:20:08;14.80;99.90
51902;DHT22;37929;53.218;6.548;2022-07-10T01:22:36;14.90;99.90
51902;DHT22;37929;53.218;6.548;2022-07-10T01:25:03;14.80;99.90
51902;DHT22;37929;53.218;6.548;2022-07-10T01:27:29;14.80;99.90
51902;DHT22;37929;53.218;6.548;2022-07-10T01:29:54;14.80;99.90
51902;DHT22;37929;53.218;6.548;2022-07-10T01:32:20;14.80;99.90
51902;DHT22;37929;53.218;6.548;2022-07-10T01:34:46;14.80;99.90
51902;DHT22;37929;53.218;6.548;2022-07-10T01:37:12;14.80;99.90
51902;DHT22;37929;53.218;6.548;2022-07-10T01:39:39;14.80;99.90
51902;DHT22;37929;53.218;6.548;2022-07-10T01:42:04;14.80;99.90
51902;DHT22;37929;53.218;6.548;2022-07-10T01:44:30;14.80;99.90
51902;DHT22;37929;53.218;6.548;2022-07-10T01:46:56;14.70;99.90
51902;DHT22;37929;53.218;6.548;2022-07-10T01:49:22;14.70;99.90
51902;DHT22;37929;53.218;6.548;2022-07-10T01:51:48;14.70;99.90
51902;DHT22;37929;53.218;6.548;2022-07-10T01:54:14;14.70;99.90
51902;DHT22;37929;53.218;6.548;2022-07-10T01:56:39;14.70;99.90
51902;DHT22;37929;53.218;6.548;2022-07-10T01:59:06;14.70;99.90
51902;DHT22;37929;53.218;6.548;2022-07-10T02:01:32;14.60;99.90
51902;DHT22;37929;53.218;6.548;2022-07-10T02:03:58;14.60;99.90
51902;DHT22;37929;53.218;6.548;2022-07-10T02:06:42;14.50;99.90
51902;DHT22;37929;53.218;6.548;2022-07-10T02:09:08;14.50;99.90
51902;DHT22;37929;53.218;6.548;2022-07-10T02:11:33;14.50;99.90
51902;DHT22;37929;53.218;6.548;2022-07-10T02:13:59;14.50;99.90
51902;DHT22;37929;53.218;6.548;2022-07-10T02:16:25;14.50;99.90
51902;DHT22;37929;53.218;6.548;2022-07-10T02:18:50;14.50;99.90
51902;DHT22;37929;53.218;6.548;2022-07-10T02:21:16;14.50;99.90
51902;DHT22;37929;53.218;6.548;2022-07-10T02:23:42;14.50;99.90
51902;DHT22;37929;53.218;6.548;2022-07-10T02:26:07;14.50;99.90
51902;DHT22;37929;53.218;6.548;2022-07-10T02:28:34;14.50;99.90
51902;DHT22;37929;53.218;6.548;2022-07-10T02:30:59;14.40;99.90
51902;DHT22;37929;53.218;6.548;2022-07-10T02:33:25;14.40;99.90
51902;DHT22;37929;53.218;6.548;2022-07-10T02:35:51;14.40;99.90
51902;DHT22;37929;53.218;6.548;2022-07-10T02:38:17;14.40;99.90
51902;DHT22;37929;53.218;6.548;2022-07-10T02:40:43;14.60;99.90
51902;DHT22;37929;53.218;6.548;2022-07-10T02:43:09;14.40;99.90
51902;DHT22;37929;53.218;6.548;2022-07-10T02:45:34;14.40;99.90
51902;DHT22;37929;53.218;6.548;2022-07-10T02:48:00;14.40;99.90
51902;DHT22;37929;53.218;6.548;2022-07-10T02:50:26;14.40;99.90
51902;DHT22;37929;53.218;6.548;2022-07-10T02:52:51;14.40;99.90
51902;DHT22;37929;53.218;6.548;2022-07-10T02:55:18;14.40;99.90
51902;DHT22;37929;53.218;6.548;2022-07-10T02:57:43;14.50;99.90
51902;DHT22;37929;53.218;6.548;2022-07-10T03:00:09;14.50;99.90
51902;DHT22;37929;53.218;6.548;2022-07-10T03:02:37;14.50;99.90
51902;DHT22;37929;53.218;6.548;2022-07-10T03:05:02;14.50;99.90
51902;DHT22;37929;53.218;6.548;2022-07-10T03:07:28;14.50;99.90
51902;DHT22;37929;53.218;6.548;2022-07-10T03:09:54;14.50;99.90
51902;DHT22;37929;53.218;6.548;2022-07-10T03:12:20;14.50;99.90
51902;DHT22;37929;53.218;6.548;2022-07-10T03:14:45;14.50;99.90
51902;DHT22;37929;53.218;6.548;2022-07-10T03:17:11;14.50;99.90
51902;DHT22;37929;53.218;6.548;2022-07-10T03:19:37;14.50;99.90
51902;DHT22;37929;53.218;6.548;2022-07-10T03:22:03;14.50;99.90
51902;DHT22;37929;53.218;6.548;2022-07-10T03:24:29;14.50;99.90
51902;DHT22;37929;53.218;6.548;2022-07-10T03:26:57;14.50;99.90
51902;DHT22;37929;53.218;6.548;2022-07-10T03:29:23;14.90;99.90
51902;DHT22;37929;53.218;6.548;2022-07-10T03:31:49;14.50;99.90
51902;DHT22;37929;53.218;6.548;2022-07-10T03:34:14;14.60;99.90
51902;DHT22;37929;53.218;6.548;2022-07-10T03:36:40;14.50;99.90
51902;DHT22;37929;53.218;6.548;2022-07-10T03:39:06;14.60;99.90
51902;DHT22;37929;53.218;6.548;2022-07-10T03:41:32;14.60;99.90
51902;DHT22;37929;53.218;6.548;2022-07-10T03:43:58;14.60;99.90
51902;DHT22;37929;53.218;6.548;2022-07-10T03:46:23;14.60;99.90
51902;DHT22;37929;53.218;6.548;2022-07-10T03:48:49;14.60;99.90
51902;DHT22;37929;53.218;6.548;2022-07-10T03:51:15;14.70;99.90
51902;DHT22;37929;53.218;6.548;2022-07-10T03:53:41;14.70;99.90
51902;DHT22;37929;53.218;6.548;2022-07-10T03:56:06;14.70;99.90
51902;DHT22;37929;53.218;6.548;2022-07-10T03:58:32;14.70;99.90
51902;DHT22;37929;53.218;6.548;2022-07-10T04:00:58;14.70;99.90
51902;DHT22;37929;53.218;6.548;2022-07-10T04:03:24;14.80;99.90
51902;DHT22;37929;53.218;6.548;2022-07-10T04:05:49;15.20;99.90
51902;DHT22;37929;53.218;6.548;2022-07-10T04:08:15;14.80;99.90
51902;DHT22;37929;53.218;6.548;2022-07-10T04:10:40;14.90;99.90
51902;DHT22;37929;53.218;6.548;2022-07-10T04:13:06;14.90;99.90
51902;DHT22;37929;53.218;6.548;2022-07-10T04:15:32;14.90;99.90
51902;DHT22;37929;53.218;6.548;2022-07-10T04:17:58;15.00;99.90
51902;DHT22;37929;53.218;6.548;2022-07-10T04:20:24;15.00;99.90
51902;DHT22;37929;53.218;6.548;2022-07-10T04:22:50;15.00;99.90
51902;DHT22;37929;53.218;6.548;2022-07-10T04:25:16;15.00;99.90
51902;DHT22;37929;53.218;6.548;2022-07-10T04:27:42;15.10;99.90
51902;DHT22;37929;53.218;6.548;2022-07-10T04:30:08;15.10;99.90
51902;DHT22;37929;53.218;6.548;2022-07-10T04:32:34;15.10;99.90
51902;DHT22;37929;53.218;6.548;2022-07-10T04:35:00;15.10;99.90
51902;DHT22;37929;53.218;6.548;2022-07-10T04:37:26;15.10;99.90
51902;DHT22;37929;53.218;6.548;2022-07-10T04:39:53;15.10;99.90
51902;DHT22;37929;53.218;6.548;2022-07-10T04:42:19;15.10;99.90
51902;DHT22;37929;53.218;6.548;2022-07-10T04:44:45;15.20;99.90
51902;DHT22;37929;53.218;6.548;2022-07-10T04:47:11;15.20;99.90
51902;DHT22;37929;53.218;6.548;2022-07-10T04:49:38;15.20;99.90
51902;DHT22;37929;53.218;6.548;2022-07-10T04:52:04;15.20;99.90
51902;DHT22;37929;53.218;6.548;2022-07-10T04:54:30;15.20;99.90
51902;DHT22;37929;53.218;6.548;2022-07-10T04:56:55;15.60;99.90
51902;DHT22;37929;53.218;6.548;2022-07-10T04:59:21;15.30;99.90
51902;DHT22;37929;53.218;6.548;2022-07-10T05:01:47;15.40;99.90
51902;DHT22;37929;53.218;6.548;2022-07-10T05:04:12;15.40;99.90
51902;DHT22;37929;53.218;6.548;2022-07-10T05:06:38;15.30;99.90
51902;DHT22;37929;53.218;6.548;2022-07-10T05:09:05;15.40;99.90
51902;DHT22;37929;53.218;6.548;2022-07-10T05:11:31;15.60;99.90
51902;DHT22;37929;53.218;6.548;2022-07-10T05:13:57;15.40;99.90
51902;DHT22;37929;53.218;6.548;2022-07-10T05:16:23;15.40;99.90
51902;DHT22;37929;53.218;6.548;2022-07-10T05:18:48;15.40;99.90
51902;DHT22;37929;53.218;6.548;2022-07-10T05:21:14;15.40;99.90
51902;DHT22;37929;53.218;6.548;2022-07-10T05:23:40;15.50;99.90
51902;DHT22;37929;53.218;6.548;2022-07-10T05:26:06;15.50;99.90
51902;DHT22;37929;53.218;6.548;2022-07-10T05:28:32;15.50;99.90
51902;DHT22;37929;53.218;6.548;2022-07-10T05:30:58;15.50;99.90
51902;DHT22;37929;53.218;6.548;2022-07-10T05:33:24;15.60;99.90
51902;DHT22;37929;53.218;6.548;2022-07-10T05:35:53;15.50;99.90
51902;DHT22;37929;53.218;6.548;2022-07-10T05:38:19;15.60;99.90
51902;DHT22;37929;53.218;6.548;2022-07-10T05:40:45;15.60;99.90
51902;DHT22;37929;53.218;6.548;2022-07-10T05:43:10;15.60;99.90
51902;DHT22;37929;53.218;6.548;2022-07-10T05:45:37;15.60;99.90
51902;DHT22;37929;53.218;6.548;2022-07-10T05:48:03;15.70;99.90
51902;DHT22;37929;53.218;6.548;2022-07-10T05:50:29;15.60;99.90
51902;DHT22;37929;53.218;6.548;2022-07-10T05:52:56;15.70;99.90
51902;DHT22;37929;53.218;6.548;2022-07-10T05:55:21;15.70;99.90
51902;DHT22;37929;53.218;6.548;2022-07-10T05:57:48;15.70;99.90
51902;DHT22;37929;53.218;6.548;2022-07-10T06:00:13;15.70;99.90
51902;DHT22;37929;53.218;6.548;2022-07-10T06:02:40;15.70;99.90
51902;DHT22;37929;53.218;6.548;2022-07-10T06:05:06;15.70;99.90
51902;DHT22;37929;53.218;6.548;2022-07-10T06:07:32;15.70;99.90
51902;DHT22;37929;53.218;6.548;2022-07-10T06:09:58;15.70;99.90
51902;DHT22;37929;53.218;6.548;2022-07-10T06:12:24;15.70;99.90
51902;DHT22;37929;53.218;6.548;2022-07-10T06:14:49;15.60;99.90
51902;DHT22;37929;53.218;6.548;2022-07-10T06:17:15;15.70;99.90
51902;DHT22;37929;53.218;6.548;2022-07-10T06:19:41;15.60;99.90
51902;DHT22;37929;53.218;6.548;2022-07-10T06:22:07;15.70;99.90
51902;DHT22;37929;53.218;6.548;2022-07-10T06:24:51;15.70;99.90
51902;DHT22;37929;53.218;6.548;2022-07-10T06:27:17;15.70;99.90
51902;DHT22;37929;53.218;6.548;2022-07-10T06:29:43;15.70;99.90
51902;DHT22;37929;53.218;6.548;2022-07-10T06:32:09;15.70;99.90
51902;DHT22;37929;53.218;6.548;2022-07-10T06:34:35;15.80;99.90
51902;DHT22;37929;53.218;6.548;2022-07-10T06:37:00;15.80;99.90
51902;DHT22;37929;53.218;6.548;2022-07-10T06:39:26;15.80;99.90
51902;DHT22;37929;53.218;6.548;2022-07-10T06:41:54;15.70;99.90
51902;DHT22;37929;53.218;6.548;2022-07-10T06:44:20;15.70;99.90
51902;DHT22;37929;53.218;6.548;2022-07-10T06:46:47;15.80;99.90
51902;DHT22;37929;53.218;6.548;2022-07-10T06:49:33;15.70;99.90
51902;DHT22;37929;53.218;6.548;2022-07-10T06:51:59;15.70;99.90
51902;DHT22;37929;53.218;6.548;2022-07-10T06:54:24;15.70;99.90
51902;DHT22;37929;53.218;6.548;2022-07-10T06:56:50;15.70;99.90
51902;DHT22;37929;53.218;6.548;2022-07-10T06:59:17;15.70;99.90
51902;DHT22;37929;53.218;6.548;2022-07-10T07:01:42;15.80;99.90
51902;DHT22;37929;53.218;6.548;2022-07-10T07:04:08;15.80;99.90
51902;DHT22;37929;53.218;6.548;2022-07-10T07:06:34;15.80;99.90
51902;DHT22;37929;53.218;6.548;2022-07-10T07:08:59;15.80;99.90
51902;DHT22;37929;53.218;6.548;2022-07-10T07:11:25;15.90;99.90
51902;DHT22;37929;53.218;6.548;2022-07-10T07:13:51;15.90;99.90
51902;DHT22;37929;53.218;6.548;2022-07-10T07:16:17;15.90;99.90
51902;DHT22;37929;53.218;6.548;2022-07-10T07:18:45;15.90;99.90
51902;DHT22;37929;53.218;6.548;2022-07-10T07:21:18;15.90;99.90
51902;DHT22;37929;53.218;6.548;2022-07-10T07:24:02;15.70;99.90
51902;DHT22;37929;53.218;6.548;2022-07-10T07:26:29;15.70;99.90
51902;DHT22;37929;53.218;6.548;2022-07-10T07:28:55;15.60;99.90
51902;DHT22;37929;53.218;6.548;2022-07-10T07:31:21;15.60;99.90
51902;DHT22;37929;53.218;6.548;2022-07-10T07:33:47;15.60;99.90
51902;DHT22;37929;53.218;6.548;2022-07-10T07:36:13;15.60;99.90
51902;DHT22;37929;53.218;6.548;2022-07-10T07:38:39;15.60;99.90
51902;DHT22;37929;53.218;6.548;2022-07-10T07:41:04;15.70;99.90
51902;DHT22;37929;53.218;6.548;2022-07-10T07:43:30;15.70;99.90
51902;DHT22;37929;53.218;6.548;2022-07-10T07:45:56;15.70;99.90
51902;DHT22;37929;53.218;6.548;2022-07-10T07:48:22;15.70;99.90
51902;DHT22;37929;53.218;6.548;2022-07-10T07:50:48;15.70;99.90
51902;DHT22;37929;53.218;6.548;2022-07-10T07:53:14;15.80;99.90
51902;DHT22;37929;53.218;6.548;2022-07-10T07:55:40;15.80;99.90
51902;DHT22;37929;53.218;6.548;2022-07-10T07:58:06;15.80;99.90
51902;DHT22;37929;53.218;6.548;2022-07-10T08:00:32;15.80;99.90
51902;DHT22;37929;53.218;6.548;2022-07-10T08:02:59;15.90;99.90
51902;DHT22;37929;53.218;6.548;2022-07-10T08:05:29;15.90;99.90
51902;DHT22;37929;53.218;6.548;2022-07-10T08:07:57;16.00;99.90
51902;DHT22;37929;53.218;6.548;2022-07-10T08:10:24;15.90;99.90
51902;DHT22;37929;53.218;6.548;2022-07-10T08:12:51;15.90;99.90
51902;DHT22;37929;53.218;6.548;2022-07-10T08:15:19;15.90;99.90
51902;DHT22;37929;53.218;6.548;2022-07-10T08:17:53;15.90;99.90
51902;DHT22;37929;53.218;6.548;2022-07-10T08:20:22;15.90;99.90
51902;DHT22;37929;53.218;6.548;2022-07-10T08:22:48;15.90;99.90
51902;DHT22;37929;53.218;6.548;2022-07-10T08:25:14;16.00;99.90
51902;DHT22;37929;53.218;6.548;2022-07-10T08:27:40;16.00;99.90
51902;DHT22;37929;53.218;6.548;2022-07-10T08:30:07;16.10;99.90
51902;DHT22;37929;53.218;6.548;2022-07-10T08:32:38;16.10;99.90
51902;DHT22;37929;53.218;6.548;2022-07-10T08:35:04;16.20;99.90
51902;DHT22;37929;53.218;6.548;2022-07-10T08:37:37;16.20;99.90
51902;DHT22;37929;53.218;6.548;2022-07-10T08:40:04;16.30;99.90
51902;DHT22;37929;53.218;6.548;2022-07-10T08:42:32;16.30;99.90
51902;DHT22;37929;53.218;6.548;2022-07-10T08:44:58;16.30;99.90
51902;DHT22;37929;53.218;6.548;2022-07-10T08:47:25;16.40;99.90
51902;DHT22;37929;53.218;6.548;2022-07-10T08:49:51;16.40;99.90
51902;DHT22;37929;53.218;6.548;2022-07-10T08:54:42;16.50;99.90
51902;DHT22;37929;53.218;6.548;2022-07-10T08:57:10;16.50;99.90
51902;DHT22;37929;53.218;6.548;2022-07-10T08:59:35;16.50;99.90
51902;DHT22;37929;53.218;6.548;2022-07-10T09:02:01;16.60;99.90
51902;DHT22;37929;53.218;6.548;2022-07-10T09:04:27;16.60;99.90
51902;DHT22;37929;53.218;6.548;2022-07-10T09:06:54;16.70;99.90
51902;DHT22;37929;53.218;6.548;2022-07-10T09:09:21;16.70;99.90
51902;DHT22;37929;53.218;6.548;2022-07-10T09:11:48;16.80;99.90
51902;DHT22;37929;53.218;6.548;2022-07-10T09:14:15;16.70;99.90
51902;DHT22;37929;53.218;6.548;2022-07-10T09:16:45;16.90;99.90
51902;DHT22;37929;53.218;6.548;2022-07-10T09:21:42;17.00;99.90
51902;DHT22;37929;53.218;6.548;2022-07-10T09:24:08;17.00;99.90
51902;DHT22;37929;53.218;6.548;2022-07-10T09:26:36;17.10;99.90
51902;DHT22;37929;53.218;6.548;2022-07-10T09:29:12;17.10;99.90
51902;DHT22;37929;53.218;6.548;2022-07-10T09:31:51;17.10;99.90
51902;DHT22;37929;53.218;6.548;2022-07-10T09:34:17;17.10;99.90
51902;DHT22;37929;53.218;6.548;2022-07-10T09:36:43;17.00;99.90
51902;DHT22;37929;53.218;6.548;2022-07-10T09:39:09;17.00;99.90
51902;DHT22;37929;53.218;6.548;2022-07-10T09:41:35;16.90;99.90
51902;DHT22;37929;53.218;6.548;2022-07-10T09:44:05;16.90;99.90
51902;DHT22;37929;53.218;6.548;2022-07-10T09:46:38;16.80;99.90
51902;DHT22;37929;53.218;6.548;2022-07-10T09:49:14;16.70;99.90
51902;DHT22;37929;53.218;6.548;2022-07-10T09:51:41;16.60;99.90
51902;DHT22;37929;53.218;6.548;2022-07-10T09:54:08;16.50;99.90
51902;DHT22;37929;53.218;6.548;2022-07-10T09:56:46;16.50;99.90
51902;DHT22;37929;53.218;6.548;2022-07-10T09:59:19;16.40;99.90
51902;DHT22;37929;53.218;6.548;2022-07-10T10:01:46;16.40;99.90
51902;DHT22;37929;53.218;6.548;2022-07-10T10:04:20;16.30;99.90
51902;DHT22;37929;53.218;6.548;2022-07-10T10:06:50;16.30;99.90
51902;DHT22;37929;53.218;6.548;2022-07-10T10:09:33;16.30;99.90
51902;DHT22;37929;53.218;6.548;2022-07-10T10:12:05;16.30;99.90
51902;DHT22;37929;53.218;6.548;2022-07-10T10:14:33;16.30;99.90
51902;DHT22;37929;53.218;6.548;2022-07-10T10:17:00;16.30;99.90
51902;DHT22;37929;53.218;6.548;2022-07-10T10:19:27;16.30;99.90
51902;DHT22;37929;53.218;6.548;2022-07-10T10:22:14;16.40;99.90
51902;DHT22;37929;53.218;6.548;2022-07-10T10:24:42;16.40;99.90
51902;DHT22;37929;53.218;6.548;2022-07-10T10:27:08;16.40;99.90
51902;DHT22;37929;53.218;6.548;2022-07-10T10:29:36;16.30;99.90
51902;DHT22;37929;53.218;6.548;2022-07-10T10:32:06;16.30;99.90
51902;DHT22;37929;53.218;6.548;2022-07-10T10:34:44;16.30;99.90
51902;DHT22;37929;53.218;6.548;2022-07-10T10:37:36;16.40;99.90
51902;DHT22;37929;53.218;6.548;2022-07-10T10:40:03;16.50;99.90
51902;DHT22;37929;53.218;6.548;2022-07-10T10:42:39;16.50;99.90
51902;DHT22;37929;53.218;6.548;2022-07-10T10:45:30;16.50;99.90
51902;DHT22;37929;53.218;6.548;2022-07-10T10:47:59;16.50;99.90
51902;DHT22;37929;53.218;6.548;2022-07-10T10:53:28;16.40;99.90
51902;DHT22;37929;53.218;6.548;2022-07-10T10:58:44;16.20;99.90
51902;DHT22;37929;53.218;6.548;2022-07-10T11:06:47;16.20;99.90
51902;DHT22;37929;53.218;6.548;2022-07-10T11:09:34;16.20;99.90
51902;DHT22;37929;53.218;6.548;2022-07-10T11:12:01;16.20;99.90
51902;DHT22;37929;53.218;6.548;2022-07-10T11:14:28;16.30;99.90
51902;DHT22;37929;53.218;6.548;2022-07-10T11:16:55;16.30;99.90
51902;DHT22;37929;53.218;6.548;2022-07-10T11:19:41;16.40;99.90
51902;DHT22;37929;53.218;6.548;2022-07-10T11:25:00;16.50;99.90
51902;DHT22;37929;53.218;6.548;2022-07-10T11:27:31;16.60;99.90
51902;DHT22;37929;53.218;6.548;2022-07-10T11:30:00;16.60;99.90
51902;DHT22;37929;53.218;6.548;2022-07-10T11:32:27;16.60;99.90
51902;DHT22;37929;53.218;6.548;2022-07-10T11:34:53;16.60;99.90
51902;DHT22;37929;53.218;6.548;2022-07-10T11:37:19;16.60;99.90
51902;DHT22;37929;53.218;6.548;2022-07-10T11:39:45;16.60;99.90
51902;DHT22;37929;53.218;6.548;2022-07-10T11:42:11;16.60;99.90
51902;DHT22;37929;53.218;6.548;2022-07-10T11:44:37;16.60;99.90
51902;DHT22;37929;53.218;6.548;2022-07-10T11:47:04;16.70;99.90
51902;DHT22;37929;53.218;6.548;2022-07-10T11:49:30;16.70;99.90
51902;DHT22;37929;53.218;6.548;2022-07-10T11:52:03;16.70;99.90
51902;DHT22;37929;53.218;6.548;2022-07-10T11:54:29;16.70;99.90
51902;DHT22;37929;53.218;6.548;2022-07-10T11:56:55;16.70;99.90
51902;DHT22;37929;53.218;6.548;2022-07-10T11:59:27;16.70;99.90
51902;DHT22;37929;53.218;6.548;2022-07-10T12:01:55;16.70;99.90
51902;DHT22;37929;53.218;6.548;2022-07-10T12:04:22;16.70;99.90
51902;DHT22;37929;53.218;6.548;2022-07-10T12:06:50;16.70;99.90
51902;DHT22;37929;53.218;6.548;2022-07-10T12:09:21;16.70;99.90
51902;DHT22;37929;53.218;6.548;2022-07-10T12:12:05;16.70;99.90
51902;DHT22;37929;53.218;6.548;2022-07-10T12:14:32;16.70;99.90
51902;DHT22;37929;53.218;6.548;2022-07-10T12:16:58;16.60;99.90
51902;DHT22;37929;53.218;6.548;2022-07-10T12:19:29;16.70;99.90
51902;DHT22;37929;53.218;6.548;2022-07-10T12:21:57;16.70;99.90
51902;DHT22;37929;53.218;6.548;2022-07-10T12:24:24;16.80;99.90
51902;DHT22;37929;53.218;6.548;2022-07-10T12:26:52;16.80;99.90
51902;DHT22;37929;53.218;6.548;2022-07-10T12:29:21;16.90;99.90
51902;DHT22;37929;53.218;6.548;2022-07-10T12:31:56;16.90;99.90
51902;DHT22;37929;53.218;6.548;2022-07-10T12:34:35;17.00;99.90
51902;DHT22;37929;53.218;6.548;2022-07-10T12:37:12;17.00;99.90
51902;DHT22;37929;53.218;6.548;2022-07-10T12:39:46;17.00;99.90
51902;DHT22;37929;53.218;6.548;2022-07-10T12:42:13;17.00;99.90
51902;DHT22;37929;53.218;6.548;2022-07-10T12:44:40;17.00;99.90
51902;DHT22;37929;53.218;6.548;2022-07-10T12:47:14;17.00;99.90
51902;DHT22;37929;53.218;6.548;2022-07-10T12:49:54;17.00;99.90
51902;DHT22;37929;53.218;6.548;2022-07-10T12:52:28;17.00;99.90
51902;DHT22;37929;53.218;6.548;2022-07-10T12:55:22;16.90;99.90
51902;DHT22;37929;53.218;6.548;2022-07-10T12:57:56;16.90;99.90
51902;DHT22;37929;53.218;6.548;2022-07-10T13:00:28;16.80;99.90
51902;DHT22;37929;53.218;6.548;2022-07-10T13:08:18;16.60;99.90
51902;DHT22;37929;53.218;6.548;2022-07-10T13:10:56;16.50;99.90
51902;DHT22;37929;53.218;6.548;2022-07-10T13:13:22;16.40;99.90
51902;DHT22;37929;53.218;6.548;2022-07-10T13:15:48;16.40;99.90
51902;DHT22;37929;53.218;6.548;2022-07-10T13:18:28;16.40;99.90
51902;DHT22;37929;53.218;6.548;2022-07-10T13:20:58;16.40;99.90
51902;DHT22;37929;53.218;6.548;2022-07-10T13:23:24;16.40;99.90
51902;DHT22;37929;53.218;6.548;2022-07-10T13:25:55;16.50;99.90
51902;DHT22;37929;53.218;6.548;2022-07-10T13:28:21;16.50;99.90
51902;DHT22;37929;53.218;6.548;2022-07-10T13:30:47;16.60;99.90
51902;DHT22;37929;53.218;6.548;2022-07-10T13:33:13;16.60;99.90
51902;DHT22;37929;53.218;6.548;2022-07-10T13:35:39;16.70;99.90
51902;DHT22;37929;53.218;6.548;2022-07-10T13:38:08;16.70;99.90
51902;DHT22;37929;53.218;6.548;2022-07-10T13:40:36;16.70;99.90
51902;DHT22;37929;53.218;6.548;2022-07-10T13:43:02;16.70;99.90
51902;DHT22;37929;53.218;6.548;2022-07-10T13:45:29;16.80;99.90
51902;DHT22;37929;53.218;6.548;2022-07-10T13:47:59;16.80;99.90
51902;DHT22;37929;53.218;6.548;2022-07-10T13:50:25;16.90;99.90
51902;DHT22;37929;53.218;6.548;2022-07-10T13:52:51;16.90;99.90
51902;DHT22;37929;53.218;6.548;2022-07-10T13:55:17;16.90;99.90
51902;DHT22;37929;53.218;6.548;2022-07-10T13:57:43;16.90;99.90
51902;DHT22;37929;53.218;6.548;2022-07-10T14:00:10;16.90;99.90
51902;DHT22;37929;53.218;6.548;2022-07-10T14:02:37;17.00;99.90
51902;DHT22;37929;53.218;6.548;2022-07-10T14:05:03;17.00;99.90
51902;DHT22;37929;53.218;6.548;2022-07-10T14:07:29;17.10;99.90
51902;DHT22;37929;53.218;6.548;2022-07-10T14:09:55;17.10;99.90
51902;DHT22;37929;53.218;6.548;2022-07-10T14:12:21;17.20;99.90
51902;DHT22;37929;53.218;6.548;2022-07-10T14:14:47;17.20;99.90
51902;DHT22;37929;53.218;6.548;2022-07-10T14:17:13;17.20;99.90
51902;DHT22;37929;53.218;6.548;2022-07-10T14:19:38;17.20;99.90
51902;DHT22;37929;53.218;6.548;2022-07-10T14:22:07;17.20;99.90
51902;DHT22;37929;53.218;6.548;2022-07-10T14:24:33;17.20;99.90
51902;DHT22;37929;53.218;6.548;2022-07-10T14:26:59;17.20;99.90
51902;DHT22;37929;53.218;6.548;2022-07-10T14:29:25;17.30;99.90
51902;DHT22;37929;53.218;6.548;2022-07-10T14:31:51;17.30;99.90
51902;DHT22;37929;53.218;6.548;2022-07-10T14:34:18;17.40;99.90
51902;DHT22;37929;53.218;6.548;2022-07-10T14:36:43;17.40;99.90
51902;DHT22;37929;53.218;6.548;2022-07-10T14:39:09;17.50;99.90
51902;DHT22;37929;53.218;6.548;2022-07-10T14:41:38;17.50;99.90
51902;DHT22;37929;53.218;6.548;2022-07-10T14:44:06;17.50;99.90
51902;DHT22;37929;53.218;6.548;2022-07-10T14:46:33;17.60;99.90
51902;DHT22;37929;53.218;6.548;2022-07-10T14:48:59;17.60;99.90
51902;DHT22;37929;53.218;6.548;2022-07-10T14:51:25;17.60;99.90
51902;DHT22;37929;53.218;6.548;2022-07-10T14:53:51;17.60;99.90
51902;DHT22;37929;53.218;6.548;2022-07-10T14:56:17;17.70;99.90
51902;DHT22;37929;53.218;6.548;2022-07-10T14:58:45;17.70;99.90
51902;DHT22;37929;53.218;6.548;2022-07-10T15:01:11;17.70;99.90
51902;DHT22;37929;53.218;6.548;2022-07-10T15:03:37;17.70;99.90
51902;DHT22;37929;53.218;6.548;2022-07-10T15:06:03;17.70;99.90
51902;DHT22;37929;53.218;6.548;2022-07-10T15:08:29;17.70;99.90
51902;DHT22;37929;53.218;6.548;2022-07-10T15:10:54;17.80;99.90
51902;DHT22;37929;53.218;6.548;2022-07-10T15:13:20;17.80;99.90
51902;DHT22;37929;53.218;6.548;2022-07-10T15:15:46;17.80;99.90
51902;DHT22;37929;53.218;6.548;2022-07-10T15:18:14;17.90;99.90
51902;DHT22;37929;53.218;6.548;2022-07-10T15:20:40;17.90;99.90
51902;DHT22;37929;53.218;6.548;2022-07-10T15:23:09;17.90;99.90
51902;DHT22;37929;53.218;6.548;2022-07-10T15:25:35;17.90;99.90
51902;DHT22;37929;53.218;6.548;2022-07-10T15:28:03;18.00;99.90
51902;DHT22;37929;53.218;6.548;2022-07-10T15:30:30;18.00;99.90
51902;DHT22;37929;53.218;6.548;2022-07-10T15:32:56;18.00;99.90
51902;DHT22;37929;53.218;6.548;2022-07-10T15:35:22;18.00;99.90
51902;DHT22;37929;53.218;6.548;2022-07-10T15:37:49;18.00;99.90
51902;DHT22;37929;53.218;6.548;2022-07-10T15:40:15;18.10;99.90
51902;DHT22;37929;53.218;6.548;2022-07-10T15:42:41;18.10;99.90
51902;DHT22;37929;53.218;6.548;2022-07-10T15:45:07;18.10;99.90
51902;DHT22;37929;53.218;6.548;2022-07-10T15:47:33;18.20;99.90
51902;DHT22;37929;53.218;6.548;2022-07-10T15:49:59;18.20;99.90
51902;DHT22;37929;53.218;6.548;2022-07-10T15:52:25;18.20;99.90
51902;DHT22;37929;53.218;6.548;2022-07-10T15:54:51;18.20;99.90
51902;DHT22;37929;53.218;6.548;2022-07-10T15:57:17;18.20;99.90